^^
Station Historical Data
Daily Summary for February 13, 2018 Units:  English    Metric   Both
« Previous Day
Next Day »
Daily Weekly Monthly Yearly Custom
  High: Low: Average:
Temperature: 58.4 °F 16.9 °F 37.3 °F
Dew Point: 32.5 °F 14.5 °F 23.1 °F
Humidity: 93% 28% 62%
Wind Speed: 3.0mph 0.0mph 0.5mph
Wind Gust: 12.0mph - -
Wind- - South
Pressure: 30.50 in 30.25 in -
Precipitation: 0.00 in    
Historical Graphs
 
 
Tabular Data for February 13, 2018
Time Temperature Dew Point Pressure Wind Wind Speed Wind Gust Humidity Rainfall Rate (Hourly) solar Conditions
00:00 16.9 °F 14.5 °F 30.47 in Calm     90% 0.00 in 0.0 W/m2 SCT
00:10 17.4 °F 15.2 °F 30.47 in Calm   1.0 mph 91% 0.00 in 0.0 W/m2 SCT
00:15 17.7 °F 15.5 °F 30.47 in Calm     91% 0.00 in 0.0 W/m2 SCT
00:20 17.7 °F 15.5 °F 30.46 in Calm     91% 0.00 in 0.0 W/m2 SCT
00:25 18.1 °F 16.0 °F 30.46 in Calm   1.0 mph 91% 0.00 in 0.0 W/m2 SCT
00:30 18.4 °F 16.2 °F 30.46 in Calm   2.0 mph 91% 0.00 in 0.0 W/m2 SCT
00:35 18.5 °F 16.4 °F 30.46 in NNW 1.0 mph 3.0 mph 91% 0.00 in 0.0 W/m2 SCT
00:40 18.7 °F 16.5 °F 30.46 in Calm   1.0 mph 91% 0.00 in 0.0 W/m2 SCT
00:45 18.7 °F 16.5 °F 30.45 in Calm   1.0 mph 91% 0.00 in 0.0 W/m2 OVC
00:50 18.8 °F 16.6 °F 30.46 in Calm   2.0 mph 91% 0.00 in 0.0 W/m2 OVC
00:55 18.8 °F 16.6 °F 30.46 in Calm   1.0 mph 91% 0.00 in 0.0 W/m2 OVC
01:00 18.9 °F 16.7 °F 30.46 in Calm   2.0 mph 91% 0.00 in 0.0 W/m2 OVC
01:10 18.9 °F 16.7 °F 30.46 in Calm   3.0 mph 91% 0.00 in 0.0 W/m2 OVC
01:20 18.9 °F 16.7 °F 30.45 in SSW 1.0 mph 4.0 mph 91% 0.00 in 0.0 W/m2 OVC
01:25 18.9 °F 16.7 °F 30.46 in South 1.0 mph 2.0 mph 91% 0.00 in 0.0 W/m2 OVC
01:30 18.9 °F 16.7 °F 30.45 in Calm   3.0 mph 91% 0.00 in 0.0 W/m2 OVC
01:35 18.9 °F 16.7 °F 30.46 in Calm     91% 0.00 in 0.0 W/m2 OVC
01:55 19.0 °F 17.1 °F 30.47 in Calm   1.0 mph 92% 0.00 in 0.0 W/m2 OVC
02:00 19.0 °F 17.1 °F 30.47 in Calm     92% 0.00 in 0.0 W/m2 OVC
02:10 18.9 °F 16.7 °F 30.47 in Calm   2.0 mph 91% 0.00 in 0.0 W/m2 OVC
02:15 18.9 °F 16.9 °F 30.48 in Calm   1.0 mph 92% 0.00 in 0.0 W/m2 OVC
02:20 18.8 °F 16.9 °F 30.48 in Calm   1.0 mph 92% 0.00 in 0.0 W/m2 OVC
02:25 18.8 °F 16.9 °F 30.48 in Calm     92% 0.00 in 0.0 W/m2 OVC
02:30 18.6 °F 16.7 °F 30.48 in Calm   1.0 mph 92% 0.00 in 0.0 W/m2 OVC
02:35 18.5 °F 16.6 °F 30.47 in Calm   2.0 mph 92% 0.00 in 0.0 W/m2 OVC
02:40 18.4 °F 16.5 °F 30.47 in Calm   2.0 mph 92% 0.00 in 0.0 W/m2 OVC
02:45 18.3 °F 16.4 °F 30.48 in Calm   1.0 mph 92% 0.00 in 0.0 W/m2 OVC
02:50 18.1 °F 16.2 °F 30.48 in Calm     92% 0.00 in 0.0 W/m2 OVC
02:55 17.9 °F 16.0 °F 30.48 in Calm     92% 0.00 in 0.0 W/m2 OVC
03:00 17.8 °F 15.9 °F 30.47 in Calm   1.0 mph 92% 0.00 in 0.0 W/m2 OVC
03:10 17.8 °F 15.9 °F 30.47 in Calm     92% 0.00 in 0.0 W/m2 SCT
03:15 17.6 °F 15.7 °F 30.47 in Calm   1.0 mph 92% 0.00 in 0.0 W/m2 SCT
03:20 17.6 °F 15.7 °F 30.47 in Calm   1.0 mph 92% 0.00 in 0.0 W/m2 SCT
03:25 17.6 °F 15.7 °F 30.47 in Calm   2.0 mph 92% 0.00 in 0.0 W/m2 CLR
03:30 17.6 °F 15.7 °F 30.47 in South 1.0 mph 2.0 mph 92% 0.00 in 0.0 W/m2 CLR
03:35 17.6 °F 15.7 °F 30.47 in Calm   2.0 mph 92% 0.00 in 0.0 W/m2 CLR
03:40 17.7 °F 15.7 °F 30.46 in South 1.0 mph 3.0 mph 92% 0.00 in 0.0 W/m2 CLR
03:45 17.7 °F 15.8 °F 30.46 in South 1.0 mph 2.0 mph 92% 0.00 in 0.0 W/m2 CLR
03:50 17.9 °F 16.0 °F 30.46 in Calm   3.0 mph 92% 0.00 in 0.0 W/m2 CLR
03:55 18.1 °F 16.4 °F 30.46 in Calm   3.0 mph 93% 0.00 in 0.0 W/m2 CLR
04:00 18.2 °F 16.5 °F 30.46 in South 1.0 mph 4.0 mph 93% 0.00 in 0.0 W/m2 CLR
04:10 18.5 °F 16.5 °F 30.45 in South 1.0 mph 4.0 mph 92% 0.00 in 0.0 W/m2 CLR
04:15 18.6 °F 16.7 °F 30.45 in South 1.0 mph 4.0 mph 92% 0.00 in 0.0 W/m2 CLR
04:20 18.7 °F 16.8 °F 30.45 in Calm   1.0 mph 92% 0.00 in 0.0 W/m2 CLR
04:25 18.8 °F 16.9 °F 30.45 in Calm     92% 0.00 in 0.0 W/m2 CLR
04:30 18.9 °F 17.0 °F 30.45 in Calm     92% 0.00 in 0.0 W/m2 CLR
04:34 19.3 °F 17.4 °F 30.45 in Calm     92% 0.00 in 0.0 W/m2 CLR
04:40 19.6 °F 17.4 °F 30.45 in Calm     91% 0.00 in 0.0 W/m2 CLR
04:45 19.7 °F 17.5 °F 30.45 in Calm     91% 0.00 in 0.0 W/m2 CLR
04:50 20.0 °F 17.8 °F 30.46 in Calm     91% 0.00 in 0.0 W/m2 CLR
04:55 20.2 °F 18.0 °F 30.46 in Calm     91% 0.00 in 0.0 W/m2 CLR
05:00 20.4 °F 17.9 °F 30.46 in Calm     90% 0.00 in 0.0 W/m2 CLR
05:10 20.3 °F 17.5 °F 30.46 in South 1.0 mph 3.0 mph 89% 0.00 in 0.0 W/m2 CLR
05:15 19.9 °F 17.2 °F 30.46 in Calm   2.0 mph 89% 0.00 in 0.0 W/m2 CLR
05:20 19.8 °F 17.3 °F 30.46 in Calm   1.0 mph 90% 0.00 in 0.0 W/m2 CLR
05:25 20.0 °F 17.5 °F 30.46 in Calm   2.0 mph 90% 0.00 in 0.0 W/m2 CLR
05:30 20.3 °F 17.9 °F 30.46 in Calm   2.0 mph 90% 0.00 in 0.0 W/m2 CLR
05:40 19.9 °F 17.4 °F 30.46 in Calm     90% 0.00 in 0.0 W/m2 CLR
05:45 19.8 °F 17.3 °F 30.46 in Calm     90% 0.00 in 0.0 W/m2 CLR
05:50 19.5 °F 17.0 °F 30.46 in Calm   1.0 mph 90% 0.00 in 0.0 W/m2 CLR
05:55 19.0 °F 16.6 °F 30.47 in Calm   1.0 mph 90% 0.00 in 0.0 W/m2 CLR
06:00 18.9 °F 16.5 °F 30.46 in Calm   1.0 mph 90% 0.00 in 0.0 W/m2 CLR
06:10 18.8 °F 16.6 °F 30.46 in Calm   1.0 mph 91% 0.00 in 0.0 W/m2 CLR
06:15 18.6 °F 16.4 °F 30.46 in Calm     91% 0.00 in 0.0 W/m2 CLR
06:20 18.6 °F 16.4 °F 30.47 in Calm     91% 0.00 in 0.0 W/m2 CLR
06:25 18.7 °F 16.5 °F 30.47 in Calm     91% 0.00 in 0.0 W/m2 CLR
06:30 18.8 °F 16.6 °F 30.47 in Calm     91% 0.00 in 0.0 W/m2 CLR
06:35 18.8 °F 16.9 °F 30.47 in Calm     92% 0.00 in 0.0 W/m2 CLR
06:40 18.4 °F 16.2 °F 30.47 in Calm     91% 0.00 in 0.0 W/m2 CLR
06:45 18.4 °F 16.2 °F 30.47 in Calm     91% 0.00 in 0.0 W/m2 CLR
06:50 18.2 °F 16.0 °F 30.47 in Calm     91% 0.00 in 0.0 W/m2 CLR
06:55 18.3 °F 16.4 °F 30.47 in Calm     92% 0.00 in 0.0 W/m2 CLR
07:00 18.3 °F 16.4 °F 30.47 in Calm     92% 0.00 in 0.0 W/m2 CLR
07:10 18.4 °F 16.5 °F 30.47 in Calm   2.0 mph 92% 0.00 in 9.0 W/m2 SCT
07:15 18.7 °F 16.7 °F 30.48 in Calm     92% 0.00 in 12.0 W/m2 SCT
07:20 19.2 °F 17.5 °F 30.48 in Calm     93% 0.00 in 12.0 W/m2 SCT
07:25 19.3 °F 17.4 °F 30.48 in Calm     92% 0.00 in 14.0 W/m2 SCT
07:30 19.7 °F 17.7 °F 30.48 in Calm     92% 0.00 in 16.0 W/m2 SCT
07:35 19.9 °F 18.0 °F 30.49 in Calm     92% 0.00 in 46.0 W/m2 SCT
07:40 20.5 °F 18.8 °F 30.49 in Calm     93% 0.00 in 46.0 W/m2 SCT
07:45 21.9 °F 20.2 °F 30.49 in Calm     93% 0.00 in 49.0 W/m2 SCT
07:50 23.6 °F 21.6 °F 30.49 in Calm     92% 0.00 in 63.0 W/m2 SCT
07:55 23.9 °F 21.7 °F 30.50 in Calm     91% 0.00 in 58.0 W/m2 SCT
08:00 25.0 °F 22.8 °F 30.50 in Calm   1.0 mph 91% 0.00 in 100.0 W/m2 SCT
08:10 27.5 °F 24.2 °F 30.49 in Calm   1.0 mph 87% 0.00 in 69.0 W/m2 SCT
08:15 28.7 °F 25.0 °F 30.49 in Calm   1.0 mph 86% 0.00 in 183.0 W/m2 SCT
08:20 29.4 °F 25.5 °F 30.49 in Calm   1.0 mph 85% 0.00 in 197.0 W/m2 SCT
08:25 30.2 °F 26.0 °F 30.49 in Calm     84% 0.00 in 234.0 W/m2 SCT
08:30 31.1 °F 26.5 °F 30.49 in Calm     83% 0.00 in 230.0 W/m2 SCT
08:35 32.1 °F 26.9 °F 30.49 in Calm     81% 0.00 in 227.0 W/m2 SCT
08:40 33.1 °F 27.6 °F 30.48 in Calm     80% 0.00 in 137.0 W/m2 SCT
08:45 34.1 °F 28.0 °F 30.49 in Calm     78% 0.00 in 160.0 W/m2 SCT
08:50 34.9 °F 28.4 °F 30.49 in Calm     77% 0.00 in 102.0 W/m2 SCT
09:00 36.6 °F 29.8 °F 30.49 in Calm     76% 0.00 in 251.0 W/m2 SCT
09:10 38.5 °F 31.0 °F 30.48 in Calm     74% 0.00 in 49.0 W/m2 SCT
09:20 39.9 °F 31.6 °F 30.48 in Calm   2.0 mph 72% 0.00 in 93.0 W/m2 SCT
09:25 40.7 °F 31.7 °F 30.48 in Calm   1.0 mph 70% 0.00 in 163.0 W/m2 SCT
09:30 41.4 °F 31.7 °F 30.48 in Calm   2.0 mph 68% 0.00 in 139.0 W/m2 SCT
09:35 42.1 °F 31.9 °F 30.48 in South 1.0 mph 2.0 mph 67% 0.00 in 288.0 W/m2 SCT
09:40 43.1 °F 32.5 °F 30.48 in Calm   2.0 mph 66% 0.00 in 308.0 W/m2 SCT
09:45 43.8 °F 32.0 °F 30.48 in South 1.0 mph 3.0 mph 63% 0.00 in 253.0 W/m2 SCT
09:49 44.3 °F 32.1 °F 30.47 in South 1.0 mph 3.0 mph 62% 0.00 in 304.0 W/m2 SCT
09:54 44.6 °F 32.3 °F 30.47 in South 1.0 mph 4.0 mph 62% 0.00 in 211.0 W/m2 SCT
10:00 45.0 °F 31.9 °F 30.48 in South 1.0 mph 3.0 mph 60% 0.00 in 387.0 W/m2 SCT
10:10 45.0 °F 31.5 °F 30.47 in South 2.0 mph 4.0 mph 59% 0.00 in 315.0 W/m2 SCT
10:15 45.6 °F 32.0 °F 30.47 in South 1.0 mph 2.0 mph 59% 0.00 in 95.0 W/m2 SCT
10:20 45.9 °F 31.6 °F 30.47 in Calm   2.0 mph 57% 0.00 in 290.0 W/m2 SCT
10:25 46.9 °F 32.0 °F 30.47 in South 1.0 mph 2.0 mph 56% 0.00 in 276.0 W/m2 SCT
10:30 47.7 °F 32.3 °F 30.46 in South 1.0 mph 2.0 mph 55% 0.00 in 341.0 W/m2 SCT
10:40 48.2 °F 31.4 °F 30.46 in SSE 2.0 mph 5.0 mph 52% 0.00 in 366.0 W/m2 SCT
10:45 48.5 °F 31.2 °F 30.46 in SE 1.0 mph 3.0 mph 51% 0.00 in 394.0 W/m2 FEW
10:50 48.9 °F 31.5 °F 30.46 in Calm   4.0 mph 51% 0.00 in 315.0 W/m2 FEW
10:55 49.4 °F 31.1 °F 30.46 in Calm   1.0 mph 49% 0.00 in 46.0 W/m2 FEW
11:00 50.3 °F 31.9 °F 30.46 in SE 1.0 mph 2.0 mph 49% 0.00 in 483.0 W/m2 FEW
11:10 50.2 °F 30.2 °F 30.45 in SE 1.0 mph 3.0 mph 46% 0.00 in 596.0 W/m2 FEW
11:15 50.4 °F 29.9 °F 30.45 in SE 1.0 mph 2.0 mph 45% 0.00 in 214.0 W/m2 FEW
11:20 50.9 °F 31.9 °F 30.44 in Calm   3.0 mph 48% 0.00 in 587.0 W/m2 FEW
11:25 50.9 °F 30.3 °F 30.44 in SE 1.0 mph 3.0 mph 45% 0.00 in 425.0 W/m2 FEW
11:30 51.4 °F 30.8 °F 30.44 in SE 1.0 mph 2.0 mph 45% 0.00 in 443.0 W/m2 FEW
11:35 51.7 °F 31.5 °F 30.43 in Calm   3.0 mph 46% 0.00 in 128.0 W/m2 FEW
11:40 52.0 °F 29.0 °F 30.43 in East 1.0 mph 4.0 mph 41% 0.00 in 330.0 W/m2 FEW
11:45 52.6 °F 31.3 °F 30.43 in East 1.0 mph 2.0 mph 44% 0.00 in 90.0 W/m2 FEW
11:55 53.6 °F 29.2 °F 30.43 in ENE 1.0 mph 2.0 mph 39% 0.00 in 501.0 W/m2 FEW
12:00 53.6 °F 31.1 °F 30.42 in ENE 1.0 mph 3.0 mph 42% 0.00 in 492.0 W/m2 FEW
12:10 53.6 °F 30.5 °F 30.42 in East 1.0 mph 3.0 mph 41% 0.00 in 42.0 W/m2 FEW
12:15 54.3 °F 29.9 °F 30.41 in ESE 1.0 mph 3.0 mph 39% 0.00 in 95.0 W/m2 FEW
12:20 55.1 °F 30.6 °F 30.41 in ENE 2.0 mph 5.0 mph 39% 0.00 in 121.0 W/m2 FEW
12:25 55.9 °F 30.6 °F 30.41 in NE 1.0 mph 4.0 mph 38% 0.00 in 167.0 W/m2 FEW
12:30 55.8 °F 31.8 °F 30.40 in NE 2.0 mph 5.0 mph 40% 0.00 in 519.0 W/m2 FEW
12:35 56.1 °F 28.8 °F 30.40 in NE 1.0 mph 4.0 mph 35% 0.00 in 580.0 W/m2 FEW
12:40 55.4 °F 28.2 °F 30.39 in NE 1.0 mph 4.0 mph 35% 0.00 in 554.0 W/m2 FEW
12:45 56.5 °F 29.9 °F 30.39 in ENE 2.0 mph 4.0 mph 36% 0.00 in 587.0 W/m2 FEW
12:50 57.0 °F 29.6 °F 30.38 in NE 2.0 mph 6.0 mph 35% 0.00 in 575.0 W/m2 FEW
12:55 56.9 °F 28.1 °F 30.38 in NE 1.0 mph 4.0 mph 33% 0.00 in 550.0 W/m2 FEW
13:00 56.3 °F 27.6 °F 30.38 in NE 1.0 mph 5.0 mph 33% 0.00 in 617.0 W/m2 FEW
13:10 57.6 °F 30.2 °F 30.37 in NE 2.0 mph 5.0 mph 35% 0.00 in 615.0 W/m2 FEW
13:15 57.7 °F 28.0 °F 30.36 in NE 1.0 mph 4.0 mph 32% 0.00 in 612.0 W/m2 FEW
13:20 57.7 °F 28.1 °F 30.36 in ENE 2.0 mph 4.0 mph 32% 0.00 in 606.0 W/m2 FEW
13:25 56.9 °F 27.3 °F 30.36 in Calm   2.0 mph 32% 0.00 in 599.0 W/m2 FEW
13:30 58.4 °F 30.1 °F 30.35 in East 2.0 mph 5.0 mph 34% 0.00 in 441.0 W/m2 FEW
13:40 57.5 °F 28.6 °F 30.35 in ENE 2.0 mph 3.0 mph 33% 0.00 in 580.0 W/m2 FEW
13:45 57.6 °F 27.9 °F 30.35 in SSE 1.0 mph 4.0 mph 32% 0.00 in 573.0 W/m2 FEW
13:50 57.5 °F 27.0 °F 30.35 in South 2.0 mph 5.0 mph 31% 0.00 in 513.0 W/m2 FEW
14:00 57.1 °F 27.5 °F 30.35 in SSE 1.0 mph 5.0 mph 32% 0.00 in 443.0 W/m2 FEW
14:10 57.2 °F 27.6 °F 30.35 in Calm   4.0 mph 32% 0.00 in 281.0 W/m2 FEW
14:15 57.7 °F 27.2 °F 30.34 in Calm   1.0 mph 31% 0.00 in 325.0 W/m2 FEW
14:20 57.7 °F 26.4 °F 30.34 in SSE 1.0 mph 4.0 mph 30% 0.00 in 381.0 W/m2 FEW
14:25 57.3 °F 26.9 °F 30.34 in SSE 1.0 mph 3.0 mph 31% 0.00 in 37.0 W/m2 FEW
14:30 57.3 °F 26.9 °F 30.33 in SSE 2.0 mph 5.0 mph 31% 0.00 in 37.0 W/m2 FEW
14:35 56.9 °F 26.6 °F 30.33 in SSE 1.0 mph 4.0 mph 31% 0.00 in 63.0 W/m2 FEW
14:45 57.8 °F 26.5 °F 30.33 in South 1.0 mph 3.0 mph 30% 0.00 in 167.0 W/m2 FEW
14:50 57.8 °F 26.5 °F 30.32 in South 1.0 mph 3.0 mph 30% 0.00 in 162.0 W/m2 FEW
14:55 57.4 °F 25.3 °F 30.32 in Calm   2.0 mph 29% 0.00 in 281.0 W/m2 FEW
15:00 57.5 °F 25.5 °F 30.32 in South 1.0 mph 2.0 mph 29% 0.00 in 37.0 W/m2 FEW
15:10 57.6 °F 24.7 °F 30.32 in South 1.0 mph 3.0 mph 28% 0.00 in 202.0 W/m2 SCT
15:15 57.8 °F 25.7 °F 30.32 in South 1.0 mph 4.0 mph 29% 0.00 in 369.0 W/m2 SCT
15:20 57.6 °F 25.5 °F 30.31 in SE 2.0 mph 4.0 mph 29% 0.00 in 35.0 W/m2 SCT
15:25 57.4 °F 24.5 °F 30.31 in ESE 1.0 mph 4.0 mph 28% 0.00 in 158.0 W/m2 SCT
15:30 57.6 °F 25.5 °F 30.31 in SE 2.0 mph 3.0 mph 29% 0.00 in 248.0 W/m2 SCT
15:35 57.4 °F 25.4 °F 30.31 in SSE 1.0 mph 5.0 mph 29% 0.00 in 292.0 W/m2 SCT
15:40 57.4 °F 24.5 °F 30.32 in SSE 1.0 mph 4.0 mph 28% 0.00 in 206.0 W/m2 SCT
15:45 57.5 °F 25.5 °F 30.32 in SSE 1.0 mph 4.0 mph 29% 0.00 in 202.0 W/m2 SCT
15:50 57.1 °F 25.1 °F 30.31 in SSE 1.0 mph 4.0 mph 29% 0.00 in 237.0 W/m2 SCT
15:55 57.4 °F 25.3 °F 30.32 in SSE 1.0 mph 2.0 mph 29% 0.00 in 227.0 W/m2 SCT
16:00 57.4 °F 24.5 °F 30.32 in Calm   4.0 mph 28% 0.00 in 225.0 W/m2 SCT
16:10 56.8 °F 25.7 °F 30.31 in SSE 2.0 mph 4.0 mph 30% 0.00 in 163.0 W/m2 SCT
16:15 56.8 °F 25.7 °F 30.31 in Calm   3.0 mph 30% 0.00 in 148.0 W/m2 SCT
16:20 56.8 °F 25.7 °F 30.32 in SW 2.0 mph 5.0 mph 30% 0.00 in 179.0 W/m2 SCT
16:25 56.0 °F 25.8 °F 30.31 in West 1.0 mph 3.0 mph 31% 0.00 in 137.0 W/m2 SCT
16:30 55.6 °F 26.2 °F 30.31 in NNE 1.0 mph 4.0 mph 32% 0.00 in 125.0 W/m2 SCT
16:35 55.5 °F 26.8 °F 30.31 in NW 3.0 mph 7.0 mph 33% 0.00 in 70.0 W/m2 SCT
16:40 55.1 °F 27.2 °F 30.31 in West 3.0 mph 11.0 mph 34% 0.00 in 63.0 W/m2 SCT
16:45 54.6 °F 27.5 °F 30.31 in West 1.0 mph 12.0 mph 35% 0.00 in 46.0 W/m2 SCT
16:50 53.8 °F 27.5 °F 30.31 in West 3.0 mph 7.0 mph 36% 0.00 in 62.0 W/m2 SCT
16:54 53.3 °F 27.0 °F 30.32 in West 1.0 mph 4.0 mph 36% 0.00 in 53.0 W/m2 SCT
17:00 52.6 °F 27.7 °F 30.31 in West 3.0 mph 6.0 mph 38% 0.00 in 16.0 W/m2 SCT
17:10 51.2 °F 27.1 °F 30.31 in West 2.0 mph 8.0 mph 39% 0.00 in 14.0 W/m2 SCT
17:15 50.9 °F 27.4 °F 30.31 in West 1.0 mph 8.0 mph 40% 0.00 in 12.0 W/m2 SCT
17:20 50.5 °F 27.0 °F 30.31 in Calm   5.0 mph 40% 0.00 in 7.0 W/m2 SCT
17:25 50.1 °F 26.7 °F 30.31 in WSW 2.0 mph 6.0 mph 40% 0.00 in 5.0 W/m2 SCT
17:30 49.9 °F 26.5 °F 30.31 in West 2.0 mph 7.0 mph 40% 0.00 in 5.0 W/m2 SCT
17:35 49.6 °F 26.2 °F 30.31 in West 2.0 mph 5.0 mph 40% 0.00 in 0.0 W/m2 SCT
17:40 49.3 °F 26.0 °F 30.32 in Calm   2.0 mph 40% 0.00 in 0.0 W/m2 SCT
17:45 48.8 °F 25.5 °F 30.32 in WNW 1.0 mph 2.0 mph 40% 0.00 in 0.0 W/m2 SCT
17:50 48.4 °F 25.8 °F 30.32 in Calm   3.0 mph 41% 0.00 in 0.0 W/m2 SCT
17:55 47.9 °F 25.3 °F 30.32 in Calm   2.0 mph 41% 0.00 in 0.0 W/m2 SCT
18:00 47.6 °F 25.0 °F 30.32 in West 1.0 mph 2.0 mph 41% 0.00 in 0.0 W/m2 SCT
18:10 47.4 °F 24.9 °F 30.33 in Calm   3.0 mph 41% 0.00 in 0.0 W/m2 SCT
18:15 47.3 °F 24.8 °F 30.32 in Calm   1.0 mph 41% 0.00 in 0.0 W/m2 SCT
18:20 46.5 °F 24.1 °F 30.32 in Calm   1.0 mph 41% 0.00 in 0.0 W/m2 SCT
18:25 45.6 °F 24.3 °F 30.32 in Calm     43% 0.00 in 0.0 W/m2 SCT
18:30 44.8 °F 24.2 °F 30.33 in Calm     44% 0.00 in 0.0 W/m2 SCT
18:35 43.9 °F 23.9 °F 30.32 in Calm     45% 0.00 in 0.0 W/m2 SCT
18:40 43.9 °F 23.4 °F 30.33 in Calm     44% 0.00 in 0.0 W/m2 SCT
18:45 43.4 °F 23.5 °F 30.33 in Calm     45% 0.00 in 0.0 W/m2 SCT
18:50 43.6 °F 24.2 °F 30.33 in WNW 2.0 mph 5.0 mph 46% 0.00 in 0.0 W/m2 SCT
19:00 44.4 °F 24.4 °F 30.33 in Calm   2.0 mph 45% 0.00 in 0.0 W/m2 SCT
19:10 43.3 °F 24.4 °F 30.33 in Calm   3.0 mph 47% 0.00 in 0.0 W/m2 SCT
19:15 42.8 °F 24.4 °F 30.32 in NNE 1.0 mph 2.0 mph 48% 0.00 in 0.0 W/m2 SCT
19:20 43.5 °F 24.0 °F 30.32 in North 1.0 mph 4.0 mph 46% 0.00 in 0.0 W/m2 SCT
19:25 44.3 °F 23.8 °F 30.32 in Calm   3.0 mph 44% 0.00 in 0.0 W/m2 SCT
19:30 44.8 °F 23.6 °F 30.32 in NNW 1.0 mph 3.0 mph 43% 0.00 in 0.0 W/m2 SCT
19:35 44.6 °F 24.0 °F 30.32 in Calm   4.0 mph 44% 0.00 in 0.0 W/m2 SCT
19:39 44.5 °F 23.9 °F 30.31 in Calm   2.0 mph 44% 0.00 in 0.0 W/m2 SCT
19:45 43.6 °F 23.7 °F 30.32 in West 1.0 mph 3.0 mph 45% 0.00 in 0.0 W/m2 SCT
19:50 43.2 °F 23.8 °F 30.32 in Calm   2.0 mph 46% 0.00 in 0.0 W/m2 SCT
19:55 42.1 °F 23.3 °F 30.32 in NW 1.0 mph 2.0 mph 47% 0.00 in 0.0 W/m2 FEW
20:00 41.4 °F 23.6 °F 30.31 in NNW 1.0 mph 3.0 mph 49% 0.00 in 0.0 W/m2 FEW
20:10 40.4 °F 23.2 °F 30.31 in Calm   4.0 mph 50% 0.00 in 0.0 W/m2 FEW
20:15 41.0 °F 22.3 °F 30.31 in West 1.0 mph 2.0 mph 47% 0.00 in 0.0 W/m2 FEW
20:19 41.4 °F 22.1 °F 30.31 in WNW 1.0 mph 4.0 mph 46% 0.00 in 0.0 W/m2 FEW
20:24 42.4 °F 22.6 °F 30.31 in Calm   4.0 mph 45% 0.00 in 0.0 W/m2 FEW
20:30 42.7 °F 22.8 °F 30.30 in NW 1.0 mph 2.0 mph 45% 0.00 in 0.0 W/m2 FEW
20:34 42.3 °F 23.5 °F 30.30 in NW 1.0 mph 3.0 mph 47% 0.00 in 0.0 W/m2 FEW
20:40 42.0 °F 22.7 °F 30.30 in WNW 1.0 mph 2.0 mph 46% 0.00 in 0.0 W/m2 FEW
20:45 41.3 °F 23.1 °F 30.30 in Calm   1.0 mph 48% 0.00 in 0.0 W/m2 FEW
20:50 39.9 °F 22.7 °F 30.30 in Calm   1.0 mph 50% 0.00 in 0.0 W/m2 FEW
20:55 38.8 °F 22.6 °F 30.30 in Calm   1.0 mph 52% 0.00 in 0.0 W/m2 FEW
21:00 37.8 °F 22.6 °F 30.30 in Calm     54% 0.00 in 0.0 W/m2 FEW
21:09 36.3 °F 23.0 °F 30.30 in Calm     58% 0.00 in 0.0 W/m2 FEW
21:14 36.1 °F 22.7 °F 30.30 in Calm     58% 0.00 in 0.0 W/m2 FEW
21:20 35.9 °F 22.5 °F 30.30 in Calm     58% 0.00 in 0.0 W/m2 FEW
21:25 36.0 °F 22.6 °F 30.30 in Calm     58% 0.00 in 0.0 W/m2 FEW
21:30 35.9 °F 22.6 °F 30.30 in Calm     58% 0.00 in 0.0 W/m2 FEW
21:35 35.3 °F 22.4 °F 30.29 in Calm     59% 0.00 in 0.0 W/m2 FEW
21:40 35.8 °F 22.8 °F 30.29 in Calm     59% 0.00 in 0.0 W/m2 FEW
21:45 36.6 °F 22.8 °F 30.29 in Calm     57% 0.00 in 0.0 W/m2 FEW
21:50 37.8 °F 23.0 °F 30.29 in Calm     55% 0.00 in 0.0 W/m2 FEW
21:55 38.7 °F 22.6 °F 30.29 in Calm     52% 0.00 in 0.0 W/m2 FEW
22:00 39.7 °F 22.5 °F 30.29 in Calm     50% 0.00 in 0.0 W/m2 FEW
22:10 39.9 °F 22.8 °F 30.28 in Calm     50% 0.00 in 0.0 W/m2 FEW
22:15 38.6 °F 22.5 °F 30.28 in Calm   1.0 mph 52% 0.00 in 0.0 W/m2 FEW
22:20 37.4 °F 22.2 °F 30.28 in Calm   1.0 mph 54% 0.00 in 0.0 W/m2 FEW
22:25 36.8 °F 22.5 °F 30.28 in Calm   1.0 mph 56% 0.00 in 0.0 W/m2 CLR
22:30 36.7 °F 22.1 °F 30.27 in Calm   2.0 mph 55% 0.00 in 0.0 W/m2 CLR
22:35 38.5 °F 22.0 °F 30.27 in Calm   4.0 mph 51% 0.00 in 0.0 W/m2 CLR
22:40 39.6 °F 21.9 °F 30.27 in West 1.0 mph 3.0 mph 49% 0.00 in 0.0 W/m2 CLR
22:45 40.5 °F 21.3 °F 30.27 in Calm   1.0 mph 46% 0.00 in 0.0 W/m2 CLR
22:55 41.0 °F 21.2 °F 30.26 in West 1.0 mph 4.0 mph 45% 0.00 in 0.0 W/m2 CLR
23:00 39.2 °F 21.6 °F 30.26 in Calm   1.0 mph 49% 0.00 in 0.0 W/m2 CLR
23:10 35.9 °F 21.8 °F 30.26 in NE 1.0 mph 4.0 mph 56% 0.00 in 0.0 W/m2 CLR
23:15 35.3 °F 21.5 °F 30.26 in Calm   1.0 mph 57% 0.00 in 0.0 W/m2 CLR
23:20 34.5 °F 21.7 °F 30.26 in Calm   1.0 mph 59% 0.00 in 0.0 W/m2 CLR
23:24 34.0 °F 21.2 °F 30.25 in Calm   1.0 mph 59% 0.00 in 0.0 W/m2 CLR
23:30 33.9 °F 21.4 °F 30.25 in Calm   2.0 mph 60% 0.00 in 0.0 W/m2 CLR
23:35 33.1 °F 21.1 °F 30.25 in Calm   1.0 mph 61% 0.00 in 0.0 W/m2 CLR
23:40 32.4 °F 21.2 °F 30.25 in Calm   1.0 mph 63% 0.00 in 0.0 W/m2 CLR
23:45 32.3 °F 21.5 °F 30.25 in Calm   1.0 mph 64% 0.00 in 0.0 W/m2 CLR
23:50 32.3 °F 21.5 °F 30.25 in Calm   1.0 mph 64% 0.00 in 0.0 W/m2 CLR
23:55 32.6 °F 21.4 °F 30.25 in Calm   1.0 mph 63% 0.00 in 0.0 W/m2 CLR
Broomfield, Colorado USA
Compliments of Weather Underground - 4 mb